sensor_id;sensor_type;location;lat;lon;timestamp;pressure;altitude;pressure_sealevel;temperature;humidity
65394;BME280;52002;49.760;6.512;2024-01-07T00:01:13;99726.55;;;4.32;73.57
65394;BME280;52002;49.760;6.512;2024-01-07T00:03:41;99726.34;;;4.33;73.83
65394;BME280;52002;49.760;6.512;2024-01-07T00:06:08;99728.73;;;4.34;73.82
65394;BME280;52002;49.760;6.512;2024-01-07T00:08:33;99730.13;;;4.35;73.94
65394;BME280;52002;49.760;6.512;2024-01-07T00:10:58;99734.08;;;4.33;74.08
65394;BME280;52002;49.760;6.512;2024-01-07T00:13:24;99736.20;;;4.33;74.06
65394;BME280;52002;49.760;6.512;2024-01-07T00:15:49;99738.25;;;4.34;74.17
65394;BME280;52002;49.760;6.512;2024-01-07T00:18:15;99739.95;;;4.32;73.73
65394;BME280;52002;49.760;6.512;2024-01-07T00:20:40;99738.34;;;4.30;73.63
65394;BME280;52002;49.760;6.512;2024-01-07T00:23:05;99741.08;;;4.26;73.65
65394;BME280;52002;49.760;6.512;2024-01-07T00:25:30;99745.27;;;4.24;73.81
65394;BME280;52002;49.760;6.512;2024-01-07T00:27:56;99751.23;;;4.22;73.74
65394;BME280;52002;49.760;6.512;2024-01-07T00:30:21;99750.36;;;4.21;73.83
65394;BME280;52002;49.760;6.512;2024-01-07T00:32:47;99753.54;;;4.22;73.94
65394;BME280;52002;49.760;6.512;2024-01-07T00:35:12;99757.15;;;4.23;73.82
65394;BME280;52002;49.760;6.512;2024-01-07T00:37:37;99759.38;;;4.21;73.83
65394;BME280;52002;49.760;6.512;2024-01-07T00:40:04;99759.21;;;4.21;73.89
65394;BME280;52002;49.760;6.512;2024-01-07T00:42:30;99762.34;;;4.22;73.72
65394;BME280;52002;49.760;6.512;2024-01-07T00:44:55;99762.88;;;4.19;73.84
65394;BME280;52002;49.760;6.512;2024-01-07T00:47:20;99767.14;;;4.18;73.93
65394;BME280;52002;49.760;6.512;2024-01-07T00:49:46;99770.08;;;4.17;73.92
65394;BME280;52002;49.760;6.512;2024-01-07T00:52:12;99774.17;;;4.13;73.91
65394;BME280;52002;49.760;6.512;2024-01-07T00:54:37;99777.17;;;4.10;73.93
65394;BME280;52002;49.760;6.512;2024-01-07T00:57:03;99778.77;;;4.07;73.89
65394;BME280;52002;49.760;6.512;2024-01-07T00:59:29;99777.44;;;4.06;74.24
65394;BME280;52002;49.760;6.512;2024-01-07T01:01:55;99785.14;;;4.07;74.16
65394;BME280;52002;49.760;6.512;2024-01-07T01:04:21;99784.02;;;4.08;74.24
65394;BME280;52002;49.760;6.512;2024-01-07T01:06:46;99787.31;;;4.09;74.22
65394;BME280;52002;49.760;6.512;2024-01-07T01:09:12;99786.77;;;4.09;74.30
65394;BME280;52002;49.760;6.512;2024-01-07T01:11:37;99791.10;;;4.07;73.80
65394;BME280;52002;49.760;6.512;2024-01-07T01:14:03;99795.73;;;4.04;73.94
65394;BME280;52002;49.760;6.512;2024-01-07T01:16:28;99799.52;;;4.00;73.80
65394;BME280;52002;49.760;6.512;2024-01-07T01:18:53;99803.13;;;3.98;73.86
65394;BME280;52002;49.760;6.512;2024-01-07T01:21:19;99800.69;;;3.95;73.83
65394;BME280;52002;49.760;6.512;2024-01-07T01:23:44;99801.34;;;3.93;74.00
65394;BME280;52002;49.760;6.512;2024-01-07T01:26:09;99801.05;;;3.92;73.99
65394;BME280;52002;49.760;6.512;2024-01-07T01:28:35;99801.99;;;3.91;74.07
65394;BME280;52002;49.760;6.512;2024-01-07T01:31:00;99802.83;;;3.94;74.46
65394;BME280;52002;49.760;6.512;2024-01-07T01:33:25;99805.20;;;3.96;74.39
65394;BME280;52002;49.760;6.512;2024-01-07T01:35:51;99809.58;;;3.97;74.23
65394;BME280;52002;49.760;6.512;2024-01-07T01:38:16;99808.79;;;3.98;74.23
65394;BME280;52002;49.760;6.512;2024-01-07T01:40:42;99806.24;;;3.96;74.10
65394;BME280;52002;49.760;6.512;2024-01-07T01:43:07;99810.10;;;3.97;74.23
65394;BME280;52002;49.760;6.512;2024-01-07T01:45:33;99812.48;;;3.95;74.08
65394;BME280;52002;49.760;6.512;2024-01-07T01:47:59;99812.59;;;3.96;74.17
65394;BME280;52002;49.760;6.512;2024-01-07T01:50:25;99814.69;;;3.99;74.21
65394;BME280;52002;49.760;6.512;2024-01-07T01:52:52;99815.15;;;3.98;74.08
65394;BME280;52002;49.760;6.512;2024-01-07T01:55:19;99815.37;;;3.97;74.32
65394;BME280;52002;49.760;6.512;2024-01-07T01:57:46;99816.88;;;3.95;73.80
65394;BME280;52002;49.760;6.512;2024-01-07T02:00:12;99817.98;;;3.92;73.93
65394;BME280;52002;49.760;6.512;2024-01-07T02:02:38;99822.80;;;3.88;73.73
65394;BME280;52002;49.760;6.512;2024-01-07T02:05:04;99823.48;;;3.86;73.96
65394;BME280;52002;49.760;6.512;2024-01-07T02:07:30;99821.15;;;3.84;74.05
65394;BME280;52002;49.760;6.512;2024-01-07T02:09:56;99819.27;;;3.83;74.09
65394;BME280;52002;49.760;6.512;2024-01-07T02:12:22;99819.90;;;3.81;74.15
65394;BME280;52002;49.760;6.512;2024-01-07T02:14:48;99820.16;;;3.79;74.05
65394;BME280;52002;49.760;6.512;2024-01-07T02:17:14;99818.45;;;3.79;73.99
65394;BME280;52002;49.760;6.512;2024-01-07T02:19:40;99820.63;;;3.80;74.22
65394;BME280;52002;49.760;6.512;2024-01-07T02:22:05;99822.33;;;3.82;74.30
65394;BME280;52002;49.760;6.512;2024-01-07T02:24:30;99824.89;;;3.83;74.26
65394;BME280;52002;49.760;6.512;2024-01-07T02:26:56;99824.64;;;3.84;74.30
65394;BME280;52002;49.760;6.512;2024-01-07T02:29:22;99824.48;;;3.84;74.30
65394;BME280;52002;49.760;6.512;2024-01-07T02:31:47;99825.83;;;3.85;74.39
65394;BME280;52002;49.760;6.512;2024-01-07T02:34:13;99828.64;;;3.85;74.38
65394;BME280;52002;49.760;6.512;2024-01-07T02:36:39;99824.02;;;3.86;74.36
65394;BME280;52002;49.760;6.512;2024-01-07T02:39:04;99823.56;;;3.87;74.75
65394;BME280;52002;49.760;6.512;2024-01-07T02:41:29;99822.73;;;3.89;74.48
65394;BME280;52002;49.760;6.512;2024-01-07T02:43:55;99823.34;;;3.88;74.47
65394;BME280;52002;49.760;6.512;2024-01-07T02:46:20;99819.98;;;3.88;74.37
65394;BME280;52002;49.760;6.512;2024-01-07T02:48:46;99815.23;;;3.88;74.44
65394;BME280;52002;49.760;6.512;2024-01-07T02:51:11;99821.33;;;3.89;74.41
65394;BME280;52002;49.760;6.512;2024-01-07T02:53:36;99820.31;;;3.86;74.05
65394;BME280;52002;49.760;6.512;2024-01-07T02:56:02;99824.08;;;3.85;74.22
65394;BME280;52002;49.760;6.512;2024-01-07T02:58:27;99821.48;;;3.84;74.12
65394;BME280;52002;49.760;6.512;2024-01-07T03:00:53;99822.38;;;3.80;73.96
65394;BME280;52002;49.760;6.512;2024-01-07T03:03:18;99822.96;;;3.77;73.90
65394;BME280;52002;49.760;6.512;2024-01-07T03:05:43;99823.86;;;3.76;74.19
65394;BME280;52002;49.760;6.512;2024-01-07T03:08:09;99828.27;;;3.76;74.08
65394;BME280;52002;49.760;6.512;2024-01-07T03:10:34;99829.84;;;3.77;74.28
65394;BME280;52002;49.760;6.512;2024-01-07T03:13:00;99827.42;;;3.79;74.42
65394;BME280;52002;49.760;6.512;2024-01-07T03:15:26;99833.36;;;3.83;74.29
65394;BME280;52002;49.760;6.512;2024-01-07T03:17:52;99834.67;;;3.81;74.09
65394;BME280;52002;49.760;6.512;2024-01-07T03:20:17;99836.02;;;3.79;74.02
65394;BME280;52002;49.760;6.512;2024-01-07T03:22:42;99837.79;;;3.76;73.97
65394;BME280;52002;49.760;6.512;2024-01-07T03:25:08;99839.37;;;3.74;73.99
65394;BME280;52002;49.760;6.512;2024-01-07T03:27:33;99840.67;;;3.70;73.90
65394;BME280;52002;49.760;6.512;2024-01-07T03:29:59;99838.75;;;3.64;73.94
65394;BME280;52002;49.760;6.512;2024-01-07T03:32:24;99844.02;;;3.61;73.79
65394;BME280;52002;49.760;6.512;2024-01-07T03:34:49;99841.95;;;3.63;74.44
65394;BME280;52002;49.760;6.512;2024-01-07T03:37:15;99844.48;;;3.65;74.38
65394;BME280;52002;49.760;6.512;2024-01-07T03:39:40;99846.39;;;3.66;74.23
65394;BME280;52002;49.760;6.512;2024-01-07T03:42:05;99847.17;;;3.67;74.15
65394;BME280;52002;49.760;6.512;2024-01-07T03:44:39;99849.14;;;3.69;74.30
65394;BME280;52002;49.760;6.512;2024-01-07T03:47:06;99846.08;;;3.70;74.31
65394;BME280;52002;49.760;6.512;2024-01-07T03:49:31;99850.97;;;3.68;74.04
65394;BME280;52002;49.760;6.512;2024-01-07T03:51:57;99852.18;;;3.66;73.87
65394;BME280;52002;49.760;6.512;2024-01-07T03:54:22;99855.07;;;3.65;74.14
65394;BME280;52002;49.760;6.512;2024-01-07T03:56:47;99855.05;;;3.59;73.82
65394;BME280;52002;49.760;6.512;2024-01-07T03:59:13;99855.77;;;3.56;73.81
65394;BME280;52002;49.760;6.512;2024-01-07T04:01:38;99856.74;;;3.55;73.95
65394;BME280;52002;49.760;6.512;2024-01-07T04:04:03;99858.53;;;3.55;74.00
65394;BME280;52002;49.760;6.512;2024-01-07T04:06:29;99858.34;;;3.55;74.15
65394;BME280;52002;49.760;6.512;2024-01-07T04:08:54;99857.50;;;3.54;74.18
65394;BME280;52002;49.760;6.512;2024-01-07T04:11:20;99861.05;;;3.53;74.06
65394;BME280;52002;49.760;6.512;2024-01-07T04:13:45;99866.17;;;3.53;74.08
65394;BME280;52002;49.760;6.512;2024-01-07T04:16:18;99863.67;;;3.51;74.03
65394;BME280;52002;49.760;6.512;2024-01-07T04:18:44;99868.75;;;3.48;74.12
65394;BME280;52002;49.760;6.512;2024-01-07T04:21:10;99872.14;;;3.47;74.04
65394;BME280;52002;49.760;6.512;2024-01-07T04:23:35;99874.48;;;3.46;74.29
65394;BME280;52002;49.760;6.512;2024-01-07T04:26:00;99877.23;;;3.47;74.20
65394;BME280;52002;49.760;6.512;2024-01-07T04:28:26;99879.66;;;3.45;74.28
65394;BME280;52002;49.760;6.512;2024-01-07T04:30:51;99878.35;;;3.43;74.32
65394;BME280;52002;49.760;6.512;2024-01-07T04:33:17;99879.53;;;3.42;74.35
65394;BME280;52002;49.760;6.512;2024-01-07T04:35:42;99881.64;;;3.42;74.31
65394;BME280;52002;49.760;6.512;2024-01-07T04:38:07;99884.92;;;3.40;74.26
65394;BME280;52002;49.760;6.512;2024-01-07T04:40:33;99887.30;;;3.41;74.52
65394;BME280;52002;49.760;6.512;2024-01-07T04:42:59;99888.85;;;3.44;74.74
65394;BME280;52002;49.760;6.512;2024-01-07T04:45:25;99890.23;;;3.45;74.37
65394;BME280;52002;49.760;6.512;2024-01-07T04:47:50;99892.68;;;3.42;74.37
65394;BME280;52002;49.760;6.512;2024-01-07T04:50:16;99896.88;;;3.43;74.63
65394;BME280;52002;49.760;6.512;2024-01-07T04:52:45;99895.61;;;3.43;74.68
65394;BME280;52002;49.760;6.512;2024-01-07T04:55:11;99898.89;;;3.41;74.60
65394;BME280;52002;49.760;6.512;2024-01-07T04:57:37;99898.67;;;3.42;74.82
65394;BME280;52002;49.760;6.512;2024-01-07T05:00:03;99900.52;;;3.43;74.79
65394;BME280;52002;49.760;6.512;2024-01-07T05:02:29;99904.63;;;3.45;75.00
65394;BME280;52002;49.760;6.512;2024-01-07T05:04:54;99904.64;;;3.48;74.90
65394;BME280;52002;49.760;6.512;2024-01-07T05:07:19;99907.20;;;3.50;75.09
65394;BME280;52002;49.760;6.512;2024-01-07T05:09:45;99910.98;;;3.52;74.93
65394;BME280;52002;49.760;6.512;2024-01-07T05:12:10;99909.84;;;3.50;74.72
65394;BME280;52002;49.760;6.512;2024-01-07T05:14:36;99913.20;;;3.49;74.79
65394;BME280;52002;49.760;6.512;2024-01-07T05:17:02;99915.30;;;3.49;74.97
65394;BME280;52002;49.760;6.512;2024-01-07T05:19:28;99917.20;;;3.50;74.81
65394;BME280;52002;49.760;6.512;2024-01-07T05:21:53;99918.41;;;3.47;74.71
65394;BME280;52002;49.760;6.512;2024-01-07T05:24:19;99922.98;;;3.45;74.73
65394;BME280;52002;49.760;6.512;2024-01-07T05:26:44;99929.77;;;3.43;74.80
65394;BME280;52002;49.760;6.512;2024-01-07T05:29:10;99927.46;;;3.43;74.90
65394;BME280;52002;49.760;6.512;2024-01-07T05:31:39;99930.02;;;3.44;74.99
65394;BME280;52002;49.760;6.512;2024-01-07T05:34:05;99930.66;;;3.43;74.78
65394;BME280;52002;49.760;6.512;2024-01-07T05:36:30;99933.96;;;3.41;74.82
65394;BME280;52002;49.760;6.512;2024-01-07T05:38:55;99932.65;;;3.42;75.20
65394;BME280;52002;49.760;6.512;2024-01-07T05:41:21;99937.11;;;3.44;75.19
65394;BME280;52002;49.760;6.512;2024-01-07T05:43:46;99938.02;;;3.46;75.18
65394;BME280;52002;49.760;6.512;2024-01-07T05:46:12;99940.88;;;3.48;75.19
65394;BME280;52002;49.760;6.512;2024-01-07T05:48:44;99935.73;;;3.49;75.16
65394;BME280;52002;49.760;6.512;2024-01-07T05:51:11;99937.80;;;3.50;75.09
65394;BME280;52002;49.760;6.512;2024-01-07T05:53:36;99937.06;;;3.51;75.20
65394;BME280;52002;49.760;6.512;2024-01-07T05:56:02;99939.29;;;3.55;75.33
65394;BME280;52002;49.760;6.512;2024-01-07T05:58:29;99941.10;;;3.54;74.95
65394;BME280;52002;49.760;6.512;2024-01-07T06:00:54;99940.38;;;3.51;74.97
65394;BME280;52002;49.760;6.512;2024-01-07T06:03:19;99941.41;;;3.48;74.90
65394;BME280;52002;49.760;6.512;2024-01-07T06:05:45;99943.83;;;3.46;75.09
65394;BME280;52002;49.760;6.512;2024-01-07T06:08:11;99949.61;;;3.47;75.13
65394;BME280;52002;49.760;6.512;2024-01-07T06:10:36;99947.26;;;3.44;74.92
65394;BME280;52002;49.760;6.512;2024-01-07T06:13:01;99948.02;;;3.44;75.01
65394;BME280;52002;49.760;6.512;2024-01-07T06:15:28;99951.45;;;3.45;75.23
65394;BME280;52002;49.760;6.512;2024-01-07T06:17:54;99959.95;;;3.44;75.23
65394;BME280;52002;49.760;6.512;2024-01-07T06:20:20;99958.88;;;3.45;75.28
65394;BME280;52002;49.760;6.512;2024-01-07T06:22:46;99961.23;;;3.43;75.15
65394;BME280;52002;49.760;6.512;2024-01-07T06:25:11;99961.89;;;3.42;75.19
65394;BME280;52002;49.760;6.512;2024-01-07T06:27:38;99964.80;;;3.43;75.53
65394;BME280;52002;49.760;6.512;2024-01-07T06:30:04;99966.64;;;3.44;75.34
65394;BME280;52002;49.760;6.512;2024-01-07T06:32:30;99969.33;;;3.46;75.46
65394;BME280;52002;49.760;6.512;2024-01-07T06:34:57;99971.40;;;3.50;75.50
65394;BME280;52002;49.760;6.512;2024-01-07T06:37:23;99971.66;;;3.52;75.60
65394;BME280;52002;49.760;6.512;2024-01-07T06:39:49;99976.27;;;3.54;75.37
65394;BME280;52002;49.760;6.512;2024-01-07T06:42:14;99980.45;;;3.52;75.14
65394;BME280;52002;49.760;6.512;2024-01-07T06:44:39;99981.64;;;3.53;75.31
65394;BME280;52002;49.760;6.512;2024-01-07T06:47:05;99982.83;;;3.54;75.28
65394;BME280;52002;49.760;6.512;2024-01-07T06:49:30;99985.92;;;3.55;75.34
65394;BME280;52002;49.760;6.512;2024-01-07T06:51:55;99989.45;;;3.55;75.16
65394;BME280;52002;49.760;6.512;2024-01-07T06:54:21;99990.88;;;3.54;75.13
65394;BME280;52002;49.760;6.512;2024-01-07T06:56:46;99997.23;;;3.57;75.42
65394;BME280;52002;49.760;6.512;2024-01-07T06:59:12;99999.95;;;3.56;74.88
65394;BME280;52002;49.760;6.512;2024-01-07T07:01:37;100001.52;;;3.53;74.76
65394;BME280;52002;49.760;6.512;2024-01-07T07:04:04;100006.30;;;3.53;74.79
65394;BME280;52002;49.760;6.512;2024-01-07T07:06:29;100006.05;;;3.51;74.88
65394;BME280;52002;49.760;6.512;2024-01-07T07:08:55;100002.41;;;3.53;75.01
65394;BME280;52002;49.760;6.512;2024-01-07T07:11:20;100003.48;;;3.53;74.86
65394;BME280;52002;49.760;6.512;2024-01-07T07:13:45;100006.42;;;3.50;74.77
65394;BME280;52002;49.760;6.512;2024-01-07T07:16:11;100005.54;;;3.50;74.78
65394;BME280;52002;49.760;6.512;2024-01-07T07:18:37;100009.82;;;3.49;74.92
65394;BME280;52002;49.760;6.512;2024-01-07T07:21:02;100013.09;;;3.47;74.70
65394;BME280;52002;49.760;6.512;2024-01-07T07:23:28;100014.73;;;3.46;74.86
65394;BME280;52002;49.760;6.512;2024-01-07T07:25:53;100020.98;;;3.48;75.01
65394;BME280;52002;49.760;6.512;2024-01-07T07:28:18;100022.46;;;3.46;74.77
65394;BME280;52002;49.760;6.512;2024-01-07T07:30:44;100022.28;;;3.47;74.87
65394;BME280;52002;49.760;6.512;2024-01-07T07:33:09;100024.52;;;3.47;74.93
65394;BME280;52002;49.760;6.512;2024-01-07T07:35:35;100024.58;;;3.50;75.07
65394;BME280;52002;49.760;6.512;2024-01-07T07:38:00;100030.55;;;3.53;75.10
65394;BME280;52002;49.760;6.512;2024-01-07T07:40:26;100034.10;;;3.56;75.08
65394;BME280;52002;49.760;6.512;2024-01-07T07:42:51;100036.02;;;3.56;74.85
65394;BME280;52002;49.760;6.512;2024-01-07T07:45:17;100041.66;;;3.56;74.81
65394;BME280;52002;49.760;6.512;2024-01-07T07:47:44;100038.31;;;3.56;74.84
65394;BME280;52002;49.760;6.512;2024-01-07T07:50:10;100042.52;;;3.59;75.39
65394;BME280;52002;49.760;6.512;2024-01-07T07:52:36;100047.21;;;3.63;75.41
65394;BME280;52002;49.760;6.512;2024-01-07T07:55:02;100049.96;;;3.67;75.37
65394;BME280;52002;49.760;6.512;2024-01-07T07:57:27;100053.36;;;3.69;75.26
65394;BME280;52002;49.760;6.512;2024-01-07T07:59:54;100055.36;;;3.71;75.32
65394;BME280;52002;49.760;6.512;2024-01-07T08:02:19;100058.11;;;3.72;75.28
65394;BME280;52002;49.760;6.512;2024-01-07T08:04:47;100061.36;;;3.77;75.51
65394;BME280;52002;49.760;6.512;2024-01-07T08:07:12;100058.16;;;3.80;75.45
65394;BME280;52002;49.760;6.512;2024-01-07T08:09:38;100061.87;;;3.80;75.02
65394;BME280;52002;49.760;6.512;2024-01-07T08:12:04;100065.11;;;3.79;75.10
65394;BME280;52002;49.760;6.512;2024-01-07T08:14:31;100070.50;;;3.79;75.34
65394;BME280;52002;49.760;6.512;2024-01-07T08:16:56;100071.89;;;3.80;75.12
65394;BME280;52002;49.760;6.512;2024-01-07T08:19:22;100071.40;;;3.79;75.02
65394;BME280;52002;49.760;6.512;2024-01-07T08:21:47;100073.31;;;3.80;74.94
65394;BME280;52002;49.760;6.512;2024-01-07T08:24:12;100071.77;;;3.79;74.94
65394;BME280;52002;49.760;6.512;2024-01-07T08:26:38;100075.42;;;3.80;74.97
65394;BME280;52002;49.760;6.512;2024-01-07T08:29:03;100079.35;;;3.83;75.06
65394;BME280;52002;49.760;6.512;2024-01-07T08:31:30;100083.23;;;3.85;74.81
65394;BME280;52002;49.760;6.512;2024-01-07T08:33:55;100082.46;;;3.86;74.80
65394;BME280;52002;49.760;6.512;2024-01-07T08:36:21;100078.58;;;3.86;74.71
65394;BME280;52002;49.760;6.512;2024-01-07T08:38:46;100082.85;;;3.89;74.80
65394;BME280;52002;49.760;6.512;2024-01-07T08:41:11;100080.94;;;3.91;74.84
65394;BME280;52002;49.760;6.512;2024-01-07T08:43:40;100084.48;;;3.94;74.68
65394;BME280;52002;49.760;6.512;2024-01-07T08:46:05;100094.77;;;3.95;74.75
65394;BME280;52002;49.760;6.512;2024-01-07T08:48:30;100096.56;;;3.92;74.51
65394;BME280;52002;49.760;6.512;2024-01-07T08:50:56;100101.55;;;3.91;73.97
65394;BME280;52002;49.760;6.512;2024-01-07T08:53:21;100099.59;;;3.89;74.23
65394;BME280;52002;49.760;6.512;2024-01-07T08:55:48;100102.30;;;3.88;74.31
65394;BME280;52002;49.760;6.512;2024-01-07T08:58:13;100105.10;;;3.88;74.30
65394;BME280;52002;49.760;6.512;2024-01-07T09:00:40;100106.14;;;3.88;74.43
65394;BME280;52002;49.760;6.512;2024-01-07T09:03:05;100107.45;;;3.90;74.66
65394;BME280;52002;49.760;6.512;2024-01-07T09:05:32;100115.55;;;3.92;74.52
65394;BME280;52002;49.760;6.512;2024-01-07T09:07:58;100116.80;;;3.92;74.20
65394;BME280;52002;49.760;6.512;2024-01-07T09:10:23;100121.44;;;3.91;74.15
65394;BME280;52002;49.760;6.512;2024-01-07T09:12:50;100122.10;;;3.89;73.90
65394;BME280;52002;49.760;6.512;2024-01-07T09:15:18;100128.61;;;3.89;74.16
65394;BME280;52002;49.760;6.512;2024-01-07T09:17:43;100128.71;;;3.88;73.55
65394;BME280;52002;49.760;6.512;2024-01-07T09:20:10;100130.45;;;3.85;73.63
65394;BME280;52002;49.760;6.512;2024-01-07T09:22:36;100130.85;;;3.87;74.06
65394;BME280;52002;49.760;6.512;2024-01-07T09:25:06;100130.70;;;3.92;74.46
65394;BME280;52002;49.760;6.512;2024-01-07T09:27:33;100139.06;;;4.00;74.64
65394;BME280;52002;49.760;6.512;2024-01-07T09:29:59;100139.58;;;4.06;74.47
65394;BME280;52002;49.760;6.512;2024-01-07T09:32:24;100140.13;;;4.09;73.99
65394;BME280;52002;49.760;6.512;2024-01-07T09:34:50;100144.02;;;4.11;73.99
65394;BME280;52002;49.760;6.512;2024-01-07T09:37:17;100146.77;;;4.13;73.76
65394;BME280;52002;49.760;6.512;2024-01-07T09:39:43;100145.97;;;4.15;73.83
65394;BME280;52002;49.760;6.512;2024-01-07T09:42:14;100148.48;;;4.17;73.69
65394;BME280;52002;49.760;6.512;2024-01-07T09:44:40;100149.92;;;4.16;73.36
65394;BME280;52002;49.760;6.512;2024-01-07T09:47:10;100151.59;;;4.15;73.06
65394;BME280;52002;49.760;6.512;2024-01-07T09:49:37;100153.45;;;4.10;72.98
65394;BME280;52002;49.760;6.512;2024-01-07T09:52:04;100162.32;;;4.06;72.84
65394;BME280;52002;49.760;6.512;2024-01-07T09:54:30;100162.21;;;4.05;73.12
65394;BME280;52002;49.760;6.512;2024-01-07T09:57:01;100165.42;;;4.04;73.31
65394;BME280;52002;49.760;6.512;2024-01-07T09:59:30;100169.90;;;4.06;73.33
65394;BME280;52002;49.760;6.512;2024-01-07T10:01:56;100166.19;;;4.06;73.04
65394;BME280;52002;49.760;6.512;2024-01-07T10:04:26;100171.82;;;4.06;72.78
65394;BME280;52002;49.760;6.512;2024-01-07T10:06:53;100166.28;;;4.04;72.75
65394;BME280;52002;49.760;6.512;2024-01-07T10:09:20;100171.06;;;4.04;72.95
65394;BME280;52002;49.760;6.512;2024-01-07T10:11:47;100172.89;;;4.06;73.00
65394;BME280;52002;49.760;6.512;2024-01-07T10:14:13;100170.21;;;4.03;72.88
65394;BME280;52002;49.760;6.512;2024-01-07T10:16:38;100176.83;;;4.02;72.80
65394;BME280;52002;49.760;6.512;2024-01-07T10:19:04;100174.81;;;4.00;72.78
65394;BME280;52002;49.760;6.512;2024-01-07T10:21:29;100173.48;;;3.99;72.85
65394;BME280;52002;49.760;6.512;2024-01-07T10:24:11;100178.14;;;3.98;72.82
65394;BME280;52002;49.760;6.512;2024-01-07T10:26:40;100179.10;;;3.96;73.02
65394;BME280;52002;49.760;6.512;2024-01-07T10:29:07;100180.91;;;3.95;72.76
65394;BME280;52002;49.760;6.512;2024-01-07T10:31:33;100182.90;;;3.94;72.78
65394;BME280;52002;49.760;6.512;2024-01-07T10:33:58;100180.98;;;3.93;72.81
65394;BME280;52002;49.760;6.512;2024-01-07T10:36:24;100181.66;;;3.94;72.89
65394;BME280;52002;49.760;6.512;2024-01-07T10:38:50;100180.63;;;3.94;72.72
65394;BME280;52002;49.760;6.512;2024-01-07T10:41:18;100180.34;;;3.93;72.75
65394;BME280;52002;49.760;6.512;2024-01-07T10:43:46;100182.98;;;3.92;72.84
65394;BME280;52002;49.760;6.512;2024-01-07T10:46:13;100181.48;;;3.91;72.70
65394;BME280;52002;49.760;6.512;2024-01-07T10:48:51;100175.70;;;3.91;72.53
65394;BME280;52002;49.760;6.512;2024-01-07T10:51:20;100178.55;;;3.90;72.81
65394;BME280;52002;49.760;6.512;2024-01-07T10:53:51;100182.13;;;3.92;72.90
65394;BME280;52002;49.760;6.512;2024-01-07T10:56:24;100180.77;;;3.94;72.82
65394;BME280;52002;49.760;6.512;2024-01-07T10:58:54;100178.29;;;3.95;72.62
65394;BME280;52002;49.760;6.512;2024-01-07T11:01:20;100181.81;;;3.98;72.83
65394;BME280;52002;49.760;6.512;2024-01-07T11:04:08;100180.31;;;4.02;73.01
65394;BME280;52002;49.760;6.512;2024-01-07T11:06:46;100182.69;;;4.04;72.67
65394;BME280;52002;49.760;6.512;2024-01-07T11:12:17;100189.63;;;4.08;72.77
65394;BME280;52002;49.760;6.512;2024-01-07T11:14:44;100186.19;;;4.13;72.88
65394;BME280;52002;49.760;6.512;2024-01-07T11:20:06;100190.65;;;4.21;73.15
65394;BME280;52002;49.760;6.512;2024-01-07T11:22:33;100191.17;;;4.25;72.97
65394;BME280;52002;49.760;6.512;2024-01-07T11:25:01;100192.57;;;4.25;72.97
65394;BME280;52002;49.760;6.512;2024-01-07T11:27:31;100193.34;;;4.23;73.05
65394;BME280;52002;49.760;6.512;2024-01-07T11:30:01;100189.18;;;4.19;72.95
65394;BME280;52002;49.760;6.512;2024-01-07T11:32:30;100192.77;;;4.16;72.94
65394;BME280;52002;49.760;6.512;2024-01-07T11:34:55;100197.86;;;4.13;73.08
65394;BME280;52002;49.760;6.512;2024-01-07T11:37:22;100202.92;;;4.10;73.40
65394;BME280;52002;49.760;6.512;2024-01-07T11:39:50;100202.08;;;4.09;73.27
65394;BME280;52002;49.760;6.512;2024-01-07T11:42:16;100204.55;;;4.09;73.45
65394;BME280;52002;49.760;6.512;2024-01-07T11:44:51;100207.89;;;4.07;73.30
65394;BME280;52002;49.760;6.512;2024-01-07T11:47:18;100210.05;;;4.03;73.49
65394;BME280;52002;49.760;6.512;2024-01-07T11:49:44;100209.41;;;3.98;73.60
65394;BME280;52002;49.760;6.512;2024-01-07T11:52:11;100204.73;;;3.97;73.60
65394;BME280;52002;49.760;6.512;2024-01-07T11:54:40;100207.56;;;3.97;73.68
65394;BME280;52002;49.760;6.512;2024-01-07T11:57:06;100208.13;;;3.93;73.40
65394;BME280;52002;49.760;6.512;2024-01-07T11:59:32;100203.52;;;3.91;73.57
65394;BME280;52002;49.760;6.512;2024-01-07T12:01:57;100204.77;;;3.91;73.91
65394;BME280;52002;49.760;6.512;2024-01-07T12:04:24;100200.02;;;3.93;73.90
65394;BME280;52002;49.760;6.512;2024-01-07T12:06:49;100204.45;;;3.93;73.78
65394;BME280;52002;49.760;6.512;2024-01-07T12:09:15;100204.55;;;3.92;73.93
65394;BME280;52002;49.760;6.512;2024-01-07T12:11:40;100204.41;;;3.90;74.10
65394;BME280;52002;49.760;6.512;2024-01-07T12:14:07;100209.13;;;3.91;73.99
65394;BME280;52002;49.760;6.512;2024-01-07T12:16:34;100203.92;;;3.90;73.70
65394;BME280;52002;49.760;6.512;2024-01-07T12:18:59;100206.56;;;3.90;73.64
65394;BME280;52002;49.760;6.512;2024-01-07T12:21:25;100203.41;;;3.90;73.51
65394;BME280;52002;49.760;6.512;2024-01-07T12:23:53;100206.86;;;3.88;73.51
65394;BME280;52002;49.760;6.512;2024-01-07T12:26:19;100203.39;;;3.87;73.84
65394;BME280;52002;49.760;6.512;2024-01-07T12:28:55;100208.36;;;3.90;73.78
65394;BME280;52002;49.760;6.512;2024-01-07T12:31:23;100207.44;;;3.90;73.80
65394;BME280;52002;49.760;6.512;2024-01-07T12:33:48;100207.42;;;3.91;73.69
65394;BME280;52002;49.760;6.512;2024-01-07T12:36:14;100205.55;;;3.90;73.65
65394;BME280;52002;49.760;6.512;2024-01-07T12:38:40;100209.94;;;3.89;73.89
65394;BME280;52002;49.760;6.512;2024-01-07T12:41:06;100213.16;;;3.92;73.96
65394;BME280;52002;49.760;6.512;2024-01-07T12:43:32;100210.52;;;3.92;73.65
65394;BME280;52002;49.760;6.512;2024-01-07T12:45:57;100206.24;;;3.90;73.53
65394;BME280;52002;49.760;6.512;2024-01-07T12:48:29;100206.54;;;3.88;73.71
65394;BME280;52002;49.760;6.512;2024-01-07T12:50:54;100205.98;;;3.85;73.78
65394;BME280;52002;49.760;6.512;2024-01-07T12:53:20;100211.68;;;3.84;73.85
65394;BME280;52002;49.760;6.512;2024-01-07T12:55:45;100210.33;;;3.83;74.15
65394;BME280;52002;49.760;6.512;2024-01-07T12:58:10;100207.92;;;3.85;74.25
65394;BME280;52002;49.760;6.512;2024-01-07T13:00:36;100208.36;;;3.87;74.03
65394;BME280;52002;49.760;6.512;2024-01-07T13:03:01;100217.85;;;3.87;74.10
65394;BME280;52002;49.760;6.512;2024-01-07T13:05:26;100219.23;;;3.81;73.90